sensor_id;sensor_type;location;lat;lon;timestamp;P1;durP1;ratioP1;P2;durP2;ratioP2
14474;SDS011;7323;50.848;4.334;2023-06-01T00:00:33;13.30;;;8.70;;
14474;SDS011;7323;50.848;4.334;2023-06-01T00:02:59;13.73;;;9.37;;
14474;SDS011;7323;50.848;4.334;2023-06-01T00:05:24;15.03;;;10.17;;
14474;SDS011;7323;50.848;4.334;2023-06-01T00:07:50;14.67;;;9.60;;
14474;SDS011;7323;50.848;4.334;2023-06-01T00:10:17;12.73;;;9.20;;
14474;SDS011;7323;50.848;4.334;2023-06-01T00:12:42;13.97;;;9.23;;
14474;SDS011;7323;50.848;4.334;2023-06-01T00:15:08;12.13;;;9.10;;
14474;SDS011;7323;50.848;4.334;2023-06-01T00:17:34;13.63;;;10.33;;
14474;SDS011;7323;50.848;4.334;2023-06-01T00:20:00;14.63;;;9.10;;
14474;SDS011;7323;50.848;4.334;2023-06-01T00:22:27;11.87;;;9.23;;
14474;SDS011;7323;50.848;4.334;2023-06-01T00:27:35;15.63;;;10.30;;
14474;SDS011;7323;50.848;4.334;2023-06-01T00:30:01;12.73;;;9.53;;
14474;SDS011;7323;50.848;4.334;2023-06-01T00:32:28;13.63;;;9.63;;
14474;SDS011;7323;50.848;4.334;2023-06-01T00:34:53;12.83;;;8.93;;
14474;SDS011;7323;50.848;4.334;2023-06-01T00:37:19;14.87;;;8.77;;
14474;SDS011;7323;50.848;4.334;2023-06-01T00:39:45;15.07;;;10.60;;
14474;SDS011;7323;50.848;4.334;2023-06-01T00:42:10;17.87;;;9.20;;
14474;SDS011;7323;50.848;4.334;2023-06-01T00:44:36;14.70;;;9.93;;
14474;SDS011;7323;50.848;4.334;2023-06-01T00:47:02;11.97;;;8.77;;
14474;SDS011;7323;50.848;4.334;2023-06-01T00:49:28;11.77;;;9.63;;
14474;SDS011;7323;50.848;4.334;2023-06-01T00:51:53;13.13;;;9.53;;
14474;SDS011;7323;50.848;4.334;2023-06-01T00:54:20;13.97;;;10.40;;
14474;SDS011;7323;50.848;4.334;2023-06-01T00:56:46;16.87;;;9.37;;
14474;SDS011;7323;50.848;4.334;2023-06-01T00:59:12;12.20;;;9.67;;
14474;SDS011;7323;50.848;4.334;2023-06-01T01:01:38;13.87;;;10.20;;
14474;SDS011;7323;50.848;4.334;2023-06-01T01:04:07;13.23;;;9.47;;
14474;SDS011;7323;50.848;4.334;2023-06-01T01:06:42;16.07;;;11.47;;
14474;SDS011;7323;50.848;4.334;2023-06-01T01:14:55;13.57;;;10.33;;
14474;SDS011;7323;50.848;4.334;2023-06-01T01:17:38;13.60;;;10.40;;
14474;SDS011;7323;50.848;4.334;2023-06-01T01:20:13;13.20;;;9.63;;
14474;SDS011;7323;50.848;4.334;2023-06-01T01:28:27;17.00;;;11.13;;
14474;SDS011;7323;50.848;4.334;2023-06-01T01:31:06;14.33;;;10.33;;
14474;SDS011;7323;50.848;4.334;2023-06-01T01:33:35;15.97;;;9.47;;
14474;SDS011;7323;50.848;4.334;2023-06-01T01:36:01;13.27;;;10.27;;
14474;SDS011;7323;50.848;4.334;2023-06-01T01:38:28;16.57;;;10.20;;
14474;SDS011;7323;50.848;4.334;2023-06-01T01:40:54;12.67;;;10.63;;
14474;SDS011;7323;50.848;4.334;2023-06-01T01:43:21;16.87;;;11.97;;
14474;SDS011;7323;50.848;4.334;2023-06-01T01:45:50;15.60;;;10.67;;
14474;SDS011;7323;50.848;4.334;2023-06-01T01:48:39;15.17;;;11.13;;
14474;SDS011;7323;50.848;4.334;2023-06-01T01:51:18;12.20;;;9.80;;
14474;SDS011;7323;50.848;4.334;2023-06-01T01:53:47;16.73;;;10.77;;
14474;SDS011;7323;50.848;4.334;2023-06-01T01:56:16;14.77;;;11.27;;
14474;SDS011;7323;50.848;4.334;2023-06-01T01:58:45;14.33;;;10.60;;
14474;SDS011;7323;50.848;4.334;2023-06-01T02:01:12;15.00;;;11.10;;
14474;SDS011;7323;50.848;4.334;2023-06-01T02:03:38;17.83;;;11.93;;
14474;SDS011;7323;50.848;4.334;2023-06-01T02:06:04;16.90;;;11.53;;
14474;SDS011;7323;50.848;4.334;2023-06-01T02:08:36;15.10;;;11.83;;
14474;SDS011;7323;50.848;4.334;2023-06-01T02:11:02;17.13;;;12.80;;
14474;SDS011;7323;50.848;4.334;2023-06-01T02:13:27;14.80;;;11.57;;
14474;SDS011;7323;50.848;4.334;2023-06-01T02:15:53;16.77;;;12.50;;
14474;SDS011;7323;50.848;4.334;2023-06-01T02:18:19;14.63;;;11.63;;
14474;SDS011;7323;50.848;4.334;2023-06-01T02:20:45;17.80;;;11.73;;
14474;SDS011;7323;50.848;4.334;2023-06-01T02:23:11;16.07;;;11.03;;
14474;SDS011;7323;50.848;4.334;2023-06-01T02:25:36;15.23;;;11.10;;
14474;SDS011;7323;50.848;4.334;2023-06-01T02:28:02;16.50;;;10.33;;
14474;SDS011;7323;50.848;4.334;2023-06-01T02:30:28;16.07;;;11.43;;
14474;SDS011;7323;50.848;4.334;2023-06-01T02:32:53;18.17;;;12.03;;
14474;SDS011;7323;50.848;4.334;2023-06-01T02:35:20;18.50;;;11.53;;
14474;SDS011;7323;50.848;4.334;2023-06-01T02:37:45;16.87;;;13.60;;
14474;SDS011;7323;50.848;4.334;2023-06-01T02:40:11;17.90;;;11.73;;
14474;SDS011;7323;50.848;4.334;2023-06-01T02:42:37;17.00;;;12.17;;
14474;SDS011;7323;50.848;4.334;2023-06-01T02:45:04;18.40;;;12.80;;
14474;SDS011;7323;50.848;4.334;2023-06-01T02:47:31;19.10;;;13.07;;
14474;SDS011;7323;50.848;4.334;2023-06-01T02:49:57;18.10;;;12.97;;
14474;SDS011;7323;50.848;4.334;2023-06-01T02:52:22;16.60;;;11.90;;
14474;SDS011;7323;50.848;4.334;2023-06-01T02:54:48;16.30;;;12.50;;
14474;SDS011;7323;50.848;4.334;2023-06-01T02:57:14;19.87;;;12.13;;
14474;SDS011;7323;50.848;4.334;2023-06-01T02:59:39;19.03;;;13.17;;
14474;SDS011;7323;50.848;4.334;2023-06-01T03:02:05;19.80;;;13.00;;
14474;SDS011;7323;50.848;4.334;2023-06-01T03:04:31;22.00;;;14.43;;
14474;SDS011;7323;50.848;4.334;2023-06-01T03:06:57;20.63;;;13.67;;
14474;SDS011;7323;50.848;4.334;2023-06-01T03:09:24;16.60;;;12.60;;
14474;SDS011;7323;50.848;4.334;2023-06-01T03:11:50;21.13;;;14.70;;
14474;SDS011;7323;50.848;4.334;2023-06-01T03:14:16;19.27;;;13.93;;
14474;SDS011;7323;50.848;4.334;2023-06-01T03:16:41;20.77;;;14.53;;
14474;SDS011;7323;50.848;4.334;2023-06-01T03:19:07;18.23;;;13.00;;
14474;SDS011;7323;50.848;4.334;2023-06-01T03:21:33;19.73;;;13.83;;
14474;SDS011;7323;50.848;4.334;2023-06-01T03:23:58;21.77;;;15.13;;
14474;SDS011;7323;50.848;4.334;2023-06-01T03:26:24;23.13;;;15.93;;
14474;SDS011;7323;50.848;4.334;2023-06-01T03:28:50;24.47;;;13.93;;
14474;SDS011;7323;50.848;4.334;2023-06-01T03:31:16;21.87;;;14.43;;
14474;SDS011;7323;50.848;4.334;2023-06-01T03:33:41;20.60;;;14.63;;
14474;SDS011;7323;50.848;4.334;2023-06-01T03:36:07;22.27;;;13.93;;
14474;SDS011;7323;50.848;4.334;2023-06-01T03:38:33;18.80;;;13.43;;
14474;SDS011;7323;50.848;4.334;2023-06-01T03:41:01;22.20;;;14.73;;
14474;SDS011;7323;50.848;4.334;2023-06-01T03:43:27;23.50;;;15.90;;
14474;SDS011;7323;50.848;4.334;2023-06-01T03:45:52;22.20;;;15.27;;
14474;SDS011;7323;50.848;4.334;2023-06-01T03:48:18;23.00;;;16.17;;
14474;SDS011;7323;50.848;4.334;2023-06-01T03:50:44;20.67;;;15.63;;
14474;SDS011;7323;50.848;4.334;2023-06-01T03:53:10;22.70;;;15.67;;
14474;SDS011;7323;50.848;4.334;2023-06-01T03:55:36;22.17;;;14.90;;
14474;SDS011;7323;50.848;4.334;2023-06-01T03:58:05;21.70;;;14.73;;
14474;SDS011;7323;50.848;4.334;2023-06-01T04:00:36;22.30;;;16.10;;
14474;SDS011;7323;50.848;4.334;2023-06-01T04:03:02;25.03;;;16.30;;
14474;SDS011;7323;50.848;4.334;2023-06-01T04:05:45;22.20;;;15.40;;
14474;SDS011;7323;50.848;4.334;2023-06-01T04:08:14;22.30;;;16.10;;
14474;SDS011;7323;50.848;4.334;2023-06-01T04:10:40;25.07;;;17.43;;
14474;SDS011;7323;50.848;4.334;2023-06-01T04:13:06;25.77;;;18.17;;
14474;SDS011;7323;50.848;4.334;2023-06-01T04:15:32;25.17;;;16.47;;
14474;SDS011;7323;50.848;4.334;2023-06-01T04:17:58;27.27;;;17.27;;
14474;SDS011;7323;50.848;4.334;2023-06-01T04:20:23;22.20;;;16.00;;
14474;SDS011;7323;50.848;4.334;2023-06-01T04:22:49;19.17;;;16.13;;
14474;SDS011;7323;50.848;4.334;2023-06-01T04:25:15;25.40;;;17.47;;
14474;SDS011;7323;50.848;4.334;2023-06-01T04:27:46;23.33;;;17.37;;
14474;SDS011;7323;50.848;4.334;2023-06-01T04:30:14;22.67;;;17.17;;
14474;SDS011;7323;50.848;4.334;2023-06-01T04:32:41;22.77;;;17.23;;
14474;SDS011;7323;50.848;4.334;2023-06-01T04:35:09;22.40;;;17.27;;
14474;SDS011;7323;50.848;4.334;2023-06-01T04:37:39;24.93;;;16.90;;
14474;SDS011;7323;50.848;4.334;2023-06-01T04:40:06;24.93;;;17.60;;
14474;SDS011;7323;50.848;4.334;2023-06-01T04:42:35;25.97;;;18.83;;
14474;SDS011;7323;50.848;4.334;2023-06-01T04:45:16;22.50;;;16.70;;
14474;SDS011;7323;50.848;4.334;2023-06-01T04:47:43;27.97;;;16.60;;
14474;SDS011;7323;50.848;4.334;2023-06-01T04:50:13;26.13;;;16.40;;
14474;SDS011;7323;50.848;4.334;2023-06-01T04:52:42;25.03;;;17.90;;
14474;SDS011;7323;50.848;4.334;2023-06-01T04:55:09;28.73;;;18.00;;
14474;SDS011;7323;50.848;4.334;2023-06-01T04:57:37;23.10;;;16.43;;
14474;SDS011;7323;50.848;4.334;2023-06-01T05:00:04;25.57;;;18.33;;
14474;SDS011;7323;50.848;4.334;2023-06-01T05:02:38;27.87;;;18.93;;
14474;SDS011;7323;50.848;4.334;2023-06-01T05:05:05;28.47;;;17.97;;
14474;SDS011;7323;50.848;4.334;2023-06-01T05:07:32;26.13;;;18.77;;
14474;SDS011;7323;50.848;4.334;2023-06-01T05:09:58;32.30;;;19.50;;
14474;SDS011;7323;50.848;4.334;2023-06-01T05:12:29;27.33;;;19.17;;
14474;SDS011;7323;50.848;4.334;2023-06-01T05:14:55;26.17;;;17.10;;
14474;SDS011;7323;50.848;4.334;2023-06-01T05:17:21;29.67;;;19.40;;
14474;SDS011;7323;50.848;4.334;2023-06-01T05:19:46;27.53;;;18.80;;
14474;SDS011;7323;50.848;4.334;2023-06-01T05:22:12;31.50;;;21.77;;
14474;SDS011;7323;50.848;4.334;2023-06-01T05:24:38;27.50;;;20.17;;
14474;SDS011;7323;50.848;4.334;2023-06-01T05:27:05;30.97;;;21.13;;
14474;SDS011;7323;50.848;4.334;2023-06-01T05:29:31;25.17;;;19.97;;
14474;SDS011;7323;50.848;4.334;2023-06-01T05:31:57;31.17;;;20.33;;
14474;SDS011;7323;50.848;4.334;2023-06-01T05:34:23;31.33;;;22.23;;
14474;SDS011;7323;50.848;4.334;2023-06-01T05:36:54;29.57;;;21.30;;
14474;SDS011;7323;50.848;4.334;2023-06-01T05:39:20;27.53;;;20.70;;
14474;SDS011;7323;50.848;4.334;2023-06-01T05:41:46;30.60;;;21.40;;
14474;SDS011;7323;50.848;4.334;2023-06-01T05:44:12;33.20;;;21.23;;
14474;SDS011;7323;50.848;4.334;2023-06-01T05:46:38;29.67;;;22.90;;
14474;SDS011;7323;50.848;4.334;2023-06-01T05:49:04;29.60;;;21.07;;
14474;SDS011;7323;50.848;4.334;2023-06-01T05:51:33;28.63;;;21.90;;
14474;SDS011;7323;50.848;4.334;2023-06-01T05:54:01;32.97;;;22.20;;
14474;SDS011;7323;50.848;4.334;2023-06-01T05:56:30;32.60;;;23.03;;
14474;SDS011;7323;50.848;4.334;2023-06-01T06:01:42;34.23;;;20.90;;
14474;SDS011;7323;50.848;4.334;2023-06-01T06:04:09;32.03;;;21.67;;
14474;SDS011;7323;50.848;4.334;2023-06-01T06:06:36;28.57;;;21.40;;
14474;SDS011;7323;50.848;4.334;2023-06-01T06:09:02;31.03;;;21.17;;
14474;SDS011;7323;50.848;4.334;2023-06-01T06:11:29;32.70;;;24.30;;
14474;SDS011;7323;50.848;4.334;2023-06-01T06:13:55;36.63;;;24.77;;
14474;SDS011;7323;50.848;4.334;2023-06-01T06:16:21;31.93;;;22.97;;
14474;SDS011;7323;50.848;4.334;2023-06-01T06:18:46;34.00;;;23.20;;
14474;SDS011;7323;50.848;4.334;2023-06-01T06:21:13;34.30;;;23.47;;
14474;SDS011;7323;50.848;4.334;2023-06-01T06:23:39;31.10;;;21.17;;
14474;SDS011;7323;50.848;4.334;2023-06-01T06:26:06;32.33;;;23.47;;
14474;SDS011;7323;50.848;4.334;2023-06-01T06:28:33;32.40;;;21.73;;
14474;SDS011;7323;50.848;4.334;2023-06-01T06:30:59;36.87;;;23.17;;
14474;SDS011;7323;50.848;4.334;2023-06-01T06:33:24;34.97;;;25.17;;
14474;SDS011;7323;50.848;4.334;2023-06-01T06:35:50;31.67;;;22.07;;
14474;SDS011;7323;50.848;4.334;2023-06-01T06:38:17;34.03;;;23.23;;
14474;SDS011;7323;50.848;4.334;2023-06-01T06:40:43;32.97;;;24.17;;
14474;SDS011;7323;50.848;4.334;2023-06-01T06:43:08;32.10;;;23.07;;
14474;SDS011;7323;50.848;4.334;2023-06-01T06:45:34;32.67;;;24.67;;
14474;SDS011;7323;50.848;4.334;2023-06-01T06:48:00;30.40;;;22.83;;
14474;SDS011;7323;50.848;4.334;2023-06-01T06:50:26;27.30;;;22.07;;
14474;SDS011;7323;50.848;4.334;2023-06-01T06:52:51;29.33;;;22.60;;
14474;SDS011;7323;50.848;4.334;2023-06-01T06:55:19;31.20;;;21.73;;
14474;SDS011;7323;50.848;4.334;2023-06-01T06:57:46;30.03;;;22.93;;
14474;SDS011;7323;50.848;4.334;2023-06-01T07:00:12;30.60;;;21.10;;
14474;SDS011;7323;50.848;4.334;2023-06-01T07:02:42;30.97;;;22.40;;
14474;SDS011;7323;50.848;4.334;2023-06-01T07:05:09;33.83;;;22.77;;
14474;SDS011;7323;50.848;4.334;2023-06-01T07:07:36;29.93;;;21.53;;
14474;SDS011;7323;50.848;4.334;2023-06-01T07:10:02;30.37;;;22.33;;
14474;SDS011;7323;50.848;4.334;2023-06-01T07:12:30;29.27;;;21.17;;
14474;SDS011;7323;50.848;4.334;2023-06-01T07:14:56;30.03;;;20.80;;
14474;SDS011;7323;50.848;4.334;2023-06-01T07:17:21;26.20;;;21.13;;
14474;SDS011;7323;50.848;4.334;2023-06-01T07:19:47;26.90;;;21.03;;
14474;SDS011;7323;50.848;4.334;2023-06-01T07:22:14;24.97;;;19.97;;
14474;SDS011;7323;50.848;4.334;2023-06-01T07:24:40;27.20;;;19.73;;
14474;SDS011;7323;50.848;4.334;2023-06-01T07:27:06;26.27;;;19.63;;
14474;SDS011;7323;50.848;4.334;2023-06-01T07:29:32;27.07;;;20.20;;
14474;SDS011;7323;50.848;4.334;2023-06-01T07:31:58;23.30;;;18.73;;
14474;SDS011;7323;50.848;4.334;2023-06-01T07:34:24;25.30;;;19.20;;
14474;SDS011;7323;50.848;4.334;2023-06-01T07:36:50;24.93;;;18.63;;
14474;SDS011;7323;50.848;4.334;2023-06-01T07:39:16;24.13;;;18.07;;
14474;SDS011;7323;50.848;4.334;2023-06-01T07:41:44;23.40;;;18.20;;
14474;SDS011;7323;50.848;4.334;2023-06-01T07:44:10;26.67;;;17.77;;
14474;SDS011;7323;50.848;4.334;2023-06-01T07:46:39;28.67;;;17.97;;
14474;SDS011;7323;50.848;4.334;2023-06-01T07:49:06;27.23;;;18.77;;
14474;SDS011;7323;50.848;4.334;2023-06-01T07:51:32;25.60;;;19.50;;
14474;SDS011;7323;50.848;4.334;2023-06-01T07:53:58;24.67;;;17.33;;
14474;SDS011;7323;50.848;4.334;2023-06-01T07:56:25;25.93;;;18.13;;
14474;SDS011;7323;50.848;4.334;2023-06-01T07:58:54;22.00;;;18.00;;
14474;SDS011;7323;50.848;4.334;2023-06-01T08:01:21;25.70;;;19.50;;
14474;SDS011;7323;50.848;4.334;2023-06-01T08:03:47;24.50;;;17.77;;
14474;SDS011;7323;50.848;4.334;2023-06-01T08:06:14;23.07;;;16.20;;
14474;SDS011;7323;50.848;4.334;2023-06-01T08:08:40;22.13;;;16.87;;
14474;SDS011;7323;50.848;4.334;2023-06-01T08:11:06;22.63;;;15.87;;
14474;SDS011;7323;50.848;4.334;2023-06-01T08:13:33;22.53;;;15.60;;
14474;SDS011;7323;50.848;4.334;2023-06-01T08:16:01;25.07;;;17.07;;
14474;SDS011;7323;50.848;4.334;2023-06-01T08:18:27;22.93;;;16.50;;
14474;SDS011;7323;50.848;4.334;2023-06-01T08:20:55;22.90;;;17.17;;
14474;SDS011;7323;50.848;4.334;2023-06-01T08:23:21;26.30;;;19.10;;
14474;SDS011;7323;50.848;4.334;2023-06-01T08:25:49;26.57;;;18.73;;
14474;SDS011;7323;50.848;4.334;2023-06-01T08:28:15;24.17;;;18.80;;
14474;SDS011;7323;50.848;4.334;2023-06-01T08:30:41;22.00;;;18.13;;
14474;SDS011;7323;50.848;4.334;2023-06-01T08:33:07;24.93;;;16.07;;
14474;SDS011;7323;50.848;4.334;2023-06-01T08:35:32;23.60;;;18.03;;
14474;SDS011;7323;50.848;4.334;2023-06-01T08:38:00;25.20;;;16.43;;
14474;SDS011;7323;50.848;4.334;2023-06-01T08:40:26;21.67;;;16.63;;
14474;SDS011;7323;50.848;4.334;2023-06-01T08:45:22;25.20;;;17.87;;
14474;SDS011;7323;50.848;4.334;2023-06-01T08:47:50;22.57;;;15.87;;
14474;SDS011;7323;50.848;4.334;2023-06-01T08:50:18;21.17;;;14.67;;
14474;SDS011;7323;50.848;4.334;2023-06-01T08:52:46;21.10;;;15.70;;
14474;SDS011;7323;50.848;4.334;2023-06-01T08:55:13;18.57;;;16.27;;
14474;SDS011;7323;50.848;4.334;2023-06-01T08:57:40;23.77;;;16.63;;
14474;SDS011;7323;50.848;4.334;2023-06-01T09:00:07;20.57;;;16.87;;
14474;SDS011;7323;50.848;4.334;2023-06-01T09:02:35;25.20;;;17.30;;
14474;SDS011;7323;50.848;4.334;2023-06-01T09:05:02;22.13;;;16.53;;
14474;SDS011;7323;50.848;4.334;2023-06-01T09:07:28;23.70;;;16.50;;
14474;SDS011;7323;50.848;4.334;2023-06-01T09:09:56;23.83;;;16.43;;
14474;SDS011;7323;50.848;4.334;2023-06-01T09:12:26;22.30;;;16.03;;
14474;SDS011;7323;50.848;4.334;2023-06-01T09:20:52;20.90;;;14.80;;
14474;SDS011;7323;50.848;4.334;2023-06-01T09:23:26;19.70;;;14.80;;
14474;SDS011;7323;50.848;4.334;2023-06-01T09:26:05;18.10;;;14.50;;
14474;SDS011;7323;50.848;4.334;2023-06-01T09:31:35;21.97;;;15.03;;
14474;SDS011;7323;50.848;4.334;2023-06-01T09:34:01;22.10;;;14.77;;
14474;SDS011;7323;50.848;4.334;2023-06-01T09:36:27;17.83;;;13.20;;
14474;SDS011;7323;50.848;4.334;2023-06-01T09:38:59;19.97;;;14.70;;
14474;SDS011;7323;50.848;4.334;2023-06-01T09:41:54;21.33;;;13.83;;
14474;SDS011;7323;50.848;4.334;2023-06-01T09:44:23;17.63;;;13.27;;
14474;SDS011;7323;50.848;4.334;2023-06-01T09:46:58;18.37;;;14.10;;
14474;SDS011;7323;50.848;4.334;2023-06-01T09:49:37;19.00;;;13.93;;
14474;SDS011;7323;50.848;4.334;2023-06-01T09:54:40;16.40;;;13.07;;
14474;SDS011;7323;50.848;4.334;2023-06-01T09:57:06;17.13;;;12.37;;
14474;SDS011;7323;50.848;4.334;2023-06-01T09:59:39;14.63;;;12.53;;
14474;SDS011;7323;50.848;4.334;2023-06-01T10:04:44;16.67;;;12.87;;
14474;SDS011;7323;50.848;4.334;2023-06-01T10:07:13;17.30;;;12.00;;
14474;SDS011;7323;50.848;4.334;2023-06-01T10:09:40;15.67;;;12.70;;
14474;SDS011;7323;50.848;4.334;2023-06-01T10:12:07;19.40;;;12.43;;
14474;SDS011;7323;50.848;4.334;2023-06-01T10:14:35;17.00;;;13.10;;
14474;SDS011;7323;50.848;4.334;2023-06-01T10:17:02;15.40;;;11.90;;
14474;SDS011;7323;50.848;4.334;2023-06-01T10:19:28;16.50;;;12.07;;
14474;SDS011;7323;50.848;4.334;2023-06-01T10:21:58;16.00;;;11.27;;
14474;SDS011;7323;50.848;4.334;2023-06-01T10:24:26;15.30;;;11.33;;
14474;SDS011;7323;50.848;4.334;2023-06-01T10:29:41;16.53;;;12.93;;
14474;SDS011;7323;50.848;4.334;2023-06-01T10:35:05;16.50;;;13.40;;
14474;SDS011;7323;50.848;4.334;2023-06-01T10:37:33;17.63;;;12.37;;
14474;SDS011;7323;50.848;4.334;2023-06-01T10:42:49;15.30;;;11.80;;
14474;SDS011;7323;50.848;4.334;2023-06-01T10:48:07;20.13;;;14.00;;
14474;SDS011;7323;50.848;4.334;2023-06-01T10:50:36;15.00;;;11.83;;
14474;SDS011;7323;50.848;4.334;2023-06-01T10:56:17;16.77;;;12.37;;
14474;SDS011;7323;50.848;4.334;2023-06-01T11:01:36;16.27;;;11.83;;
14474;SDS011;7323;50.848;4.334;2023-06-01T11:04:03;17.30;;;11.17;;
14474;SDS011;7323;50.848;4.334;2023-06-01T11:06:34;16.37;;;12.53;;
14474;SDS011;7323;50.848;4.334;2023-06-01T11:09:07;16.47;;;12.33;;
14474;SDS011;7323;50.848;4.334;2023-06-01T11:11:55;18.90;;;13.47;;
14474;SDS011;7323;50.848;4.334;2023-06-01T11:14:23;16.67;;;12.57;;
14474;SDS011;7323;50.848;4.334;2023-06-01T11:16:51;25.70;;;14.47;;
14474;SDS011;7323;50.848;4.334;2023-06-01T11:21:54;21.73;;;12.77;;
14474;SDS011;7323;50.848;4.334;2023-06-01T11:24:34;16.27;;;12.33;;
14474;SDS011;7323;50.848;4.334;2023-06-01T11:27:08;18.90;;;12.87;;
14474;SDS011;7323;50.848;4.334;2023-06-01T11:29:35;25.20;;;13.93;;
14474;SDS011;7323;50.848;4.334;2023-06-01T11:32:01;16.30;;;13.47;;
14474;SDS011;7323;50.848;4.334;2023-06-01T11:37:04;19.17;;;11.43;;
14474;SDS011;7323;50.848;4.334;2023-06-01T11:39:30;19.07;;;13.07;;
14474;SDS011;7323;50.848;4.334;2023-06-01T11:42:04;18.43;;;13.20;;
14474;SDS011;7323;50.848;4.334;2023-06-01T11:44:36;17.60;;;13.20;;
14474;SDS011;7323;50.848;4.334;2023-06-01T11:47:03;15.73;;;12.50;;
14474;SDS011;7323;50.848;4.334;2023-06-01T11:49:30;15.43;;;12.43;;
14474;SDS011;7323;50.848;4.334;2023-06-01T11:52:07;15.03;;;12.27;;
14474;SDS011;7323;50.848;4.334;2023-06-01T11:54:33;17.17;;;12.37;;
14474;SDS011;7323;50.848;4.334;2023-06-01T11:57:02;18.43;;;12.63;;
14474;SDS011;7323;50.848;4.334;2023-06-01T11:59:36;19.43;;;14.63;;
14474;SDS011;7323;50.848;4.334;2023-06-01T12:02:27;17.23;;;12.33;;
14474;SDS011;7323;50.848;4.334;2023-06-01T12:07:31;14.93;;;11.33;;
14474;SDS011;7323;50.848;4.334;2023-06-01T12:10:10;19.03;;;11.97;;
14474;SDS011;7323;50.848;4.334;2023-06-01T12:15:22;13.93;;;12.17;;
14474;SDS011;7323;50.848;4.334;2023-06-01T12:20:30;14.87;;;11.13;;
14474;SDS011;7323;50.848;4.334;2023-06-01T12:23:01;15.97;;;11.90;;
14474;SDS011;7323;50.848;4.334;2023-06-01T12:28:19;15.17;;;10.83;;
14474;SDS011;7323;50.848;4.334;2023-06-01T12:30:46;14.20;;;10.73;;
14474;SDS011;7323;50.848;4.334;2023-06-01T12:36:05;16.77;;;11.50;;
14474;SDS011;7323;50.848;4.334;2023-06-01T12:38:36;13.77;;;11.30;;
14474;SDS011;7323;50.848;4.334;2023-06-01T12:41:06;16.37;;;11.20;;
14474;SDS011;7323;50.848;4.334;2023-06-01T12:43:37;17.20;;;12.97;;
14474;SDS011;7323;50.848;4.334;2023-06-01T12:46:04;15.90;;;12.40;;
14474;SDS011;7323;50.848;4.334;2023-06-01T12:48:32;18.97;;;12.37;;
14474;SDS011;7323;50.848;4.334;2023-06-01T12:51:02;16.33;;;12.23;;
14474;SDS011;7323;50.848;4.334;2023-06-01T12:53:29;16.47;;;11.77;;
14474;SDS011;7323;50.848;4.334;2023-06-01T12:55:55;14.07;;;9.40;;
14474;SDS011;7323;50.848;4.334;2023-06-01T12:58:22;14.07;;;9.87;;
14474;SDS011;7323;50.848;4.334;2023-06-01T13:00:48;14.40;;;11.27;;
14474;SDS011;7323;50.848;4.334;2023-06-01T13:03:15;14.33;;;10.63;;
14474;SDS011;7323;50.848;4.334;2023-06-01T13:05:41;21.40;;;11.90;;
14474;SDS011;7323;50.848;4.334;2023-06-01T13:08:15;13.50;;;10.03;;
14474;SDS011;7323;50.848;4.334;2023-06-01T13:10:43;15.13;;;10.57;;
14474;SDS011;7323;50.848;4.334;2023-06-01T13:13:09;15.27;;;10.57;;
14474;SDS011;7323;50.848;4.334;2023-06-01T13:15:39;15.87;;;11.30;;
14474;SDS011;7323;50.848;4.334;2023-06-01T13:18:05;18.03;;;9.93;;
14474;SDS011;7323;50.848;4.334;2023-06-01T13:20:32;14.47;;;10.10;;
14474;SDS011;7323;50.848;4.334;2023-06-01T13:22:58;12.50;;;9.80;;
14474;SDS011;7323;50.848;4.334;2023-06-01T13:25:25;13.83;;;8.70;;
14474;SDS011;7323;50.848;4.334;2023-06-01T13:27:51;15.60;;;9.93;;
14474;SDS011;7323;50.848;4.334;2023-06-01T13:30:17;13.43;;;9.20;;
14474;SDS011;7323;50.848;4.334;2023-06-01T13:32:43;12.20;;;8.90;;
14474;SDS011;7323;50.848;4.334;2023-06-01T13:35:10;13.70;;;9.03;;
14474;SDS011;7323;50.848;4.334;2023-06-01T13:37:39;14.63;;;10.30;;
14474;SDS011;7323;50.848;4.334;2023-06-01T13:40:06;14.83;;;9.73;;
14474;SDS011;7323;50.848;4.334;2023-06-01T13:42:32;13.30;;;9.47;;
14474;SDS011;7323;50.848;4.334;2023-06-01T13:45:00;12.53;;;9.07;;
14474;SDS011;7323;50.848;4.334;2023-06-01T13:47:26;14.53;;;9.27;;
14474;SDS011;7323;50.848;4.334;2023-06-01T13:49:55;14.90;;;8.80;;
14474;SDS011;7323;50.848;4.334;2023-06-01T13:52:20;14.07;;;8.93;;
14474;SDS011;7323;50.848;4.334;2023-06-01T13:54:50;12.87;;;9.00;;
14474;SDS011;7323;50.848;4.334;2023-06-01T13:57:17;11.80;;;8.60;;
14474;SDS011;7323;50.848;4.334;2023-06-01T14:05:39;15.77;;;7.67;;
14474;SDS011;7323;50.848;4.334;2023-06-01T14:08:08;23.37;;;8.63;;
14474;SDS011;7323;50.848;4.334;2023-06-01T14:16:10;11.13;;;6.67;;
14474;SDS011;7323;50.848;4.334;2023-06-01T14:18:43;9.23;;;6.43;;
14474;SDS011;7323;50.848;4.334;2023-06-01T14:21:09;7.43;;;5.70;;
14474;SDS011;7323;50.848;4.334;2023-06-01T14:23:37;18.03;;;6.87;;
14474;SDS011;7323;50.848;4.334;2023-06-01T14:26:18;11.77;;;6.30;;
14474;SDS011;7323;50.848;4.334;2023-06-01T14:28:58;9.70;;;6.30;;
14474;SDS011;7323;50.848;4.334;2023-06-01T14:31:31;10.70;;;6.50;;
14474;SDS011;7323;50.848;4.334;2023-06-01T14:36:51;9.13;;;5.90;;
14474;SDS011;7323;50.848;4.334;2023-06-01T14:39:32;8.53;;;6.00;;
14474;SDS011;7323;50.848;4.334;2023-06-01T14:41:59;10.20;;;6.53;;
14474;SDS011;7323;50.848;4.334;2023-06-01T14:44:25;10.20;;;6.80;;
14474;SDS011;7323;50.848;4.334;2023-06-01T14:46:52;11.63;;;5.87;;
14474;SDS011;7323;50.848;4.334;2023-06-01T14:49:18;9.70;;;6.67;;
14474;SDS011;7323;50.848;4.334;2023-06-01T14:51:45;12.77;;;5.97;;
14474;SDS011;7323;50.848;4.334;2023-06-01T14:54:10;10.17;;;5.93;;
14474;SDS011;7323;50.848;4.334;2023-06-01T14:56:37;7.87;;;5.50;;
14474;SDS011;7323;50.848;4.334;2023-06-01T14:59:04;9.07;;;5.87;;
14474;SDS011;7323;50.848;4.334;2023-06-01T15:01:30;9.27;;;5.90;;
14474;SDS011;7323;50.848;4.334;2023-06-01T15:03:57;10.50;;;6.63;;
14474;SDS011;7323;50.848;4.334;2023-06-01T15:06:22;10.30;;;6.87;;
14474;SDS011;7323;50.848;4.334;2023-06-01T15:08:49;8.97;;;6.67;;
14474;SDS011;7323;50.848;4.334;2023-06-01T15:11:14;10.10;;;6.80;;
14474;SDS011;7323;50.848;4.334;2023-06-01T15:13:40;9.77;;;6.77;;
14474;SDS011;7323;50.848;4.334;2023-06-01T15:16:07;13.53;;;7.83;;
14474;SDS011;7323;50.848;4.334;2023-06-01T15:18:33;10.80;;;7.20;;
14474;SDS011;7323;50.848;4.334;2023-06-01T15:20:59;9.27;;;6.20;;
14474;SDS011;7323;50.848;4.334;2023-06-01T15:23:26;12.63;;;7.67;;
14474;SDS011;7323;50.848;4.334;2023-06-01T15:25:54;11.30;;;7.13;;
14474;SDS011;7323;50.848;4.334;2023-06-01T15:28:22;13.70;;;7.37;;
14474;SDS011;7323;50.848;4.334;2023-06-01T15:30:48;11.63;;;7.40;;
14474;SDS011;7323;50.848;4.334;2023-06-01T15:33:24;14.30;;;8.13;;
14474;SDS011;7323;50.848;4.334;2023-06-01T15:35:50;11.50;;;7.30;;
14474;SDS011;7323;50.848;4.334;2023-06-01T15:38:15;14.70;;;8.90;;
14474;SDS011;7323;50.848;4.334;2023-06-01T15:40:41;10.33;;;7.40;;
14474;SDS011;7323;50.848;4.334;2023-06-01T15:43:07;13.83;;;8.17;;
14474;SDS011;7323;50.848;4.334;2023-06-01T15:45:32;14.00;;;7.67;;
14474;SDS011;7323;50.848;4.334;2023-06-01T15:48:06;11.23;;;8.30;;
14474;SDS011;7323;50.848;4.334;2023-06-01T15:50:32;13.00;;;8.23;;
14474;SDS011;7323;50.848;4.334;2023-06-01T15:53:01;13.17;;;9.17;;
14474;SDS011;7323;50.848;4.334;2023-06-01T15:55:27;13.73;;;9.30;;
14474;SDS011;7323;50.848;4.334;2023-06-01T15:58:05;11.07;;;8.57;;
14474;SDS011;7323;50.848;4.334;2023-06-01T16:00:31;12.27;;;8.73;;
14474;SDS011;7323;50.848;4.334;2023-06-01T16:02:56;10.33;;;7.77;;
14474;SDS011;7323;50.848;4.334;2023-06-01T16:05:22;18.23;;;8.80;;